sensor_id;sensor_type;location;lat;lon;timestamp;temperature;humidity
13174;DHT22;6652;48.802;9.190;2023-03-07T00:01:56;3.70;99.90
13174;DHT22;6652;48.802;9.190;2023-03-07T00:04:24;3.70;99.90
13174;DHT22;6652;48.802;9.190;2023-03-07T00:06:51;3.70;99.90
13174;DHT22;6652;48.802;9.190;2023-03-07T00:09:20;3.60;99.90
13174;DHT22;6652;48.802;9.190;2023-03-07T00:11:48;3.60;99.90
13174;DHT22;6652;48.802;9.190;2023-03-07T00:14:15;3.60;99.90
13174;DHT22;6652;48.802;9.190;2023-03-07T00:16:42;3.60;99.90
13174;DHT22;6652;48.802;9.190;2023-03-07T00:19:08;3.60;99.90
13174;DHT22;6652;48.802;9.190;2023-03-07T00:21:37;3.60;99.90
13174;DHT22;6652;48.802;9.190;2023-03-07T00:24:04;3.60;99.90
13174;DHT22;6652;48.802;9.190;2023-03-07T00:26:31;3.60;99.90
13174;DHT22;6652;48.802;9.190;2023-03-07T00:29:04;3.60;99.90
13174;DHT22;6652;48.802;9.190;2023-03-07T00:31:30;3.60;99.90
13174;DHT22;6652;48.802;9.190;2023-03-07T00:33:57;3.70;99.90
13174;DHT22;6652;48.802;9.190;2023-03-07T00:36:26;3.60;99.90
13174;DHT22;6652;48.802;9.190;2023-03-07T00:38:54;3.70;99.90
13174;DHT22;6652;48.802;9.190;2023-03-07T00:41:22;3.70;99.90
13174;DHT22;6652;48.802;9.190;2023-03-07T00:43:49;3.70;99.90
13174;DHT22;6652;48.802;9.190;2023-03-07T00:46:19;3.70;99.90
13174;DHT22;6652;48.802;9.190;2023-03-07T00:48:47;3.70;99.90
13174;DHT22;6652;48.802;9.190;2023-03-07T00:51:15;3.80;99.90
13174;DHT22;6652;48.802;9.190;2023-03-07T00:53:43;3.70;99.90
13174;DHT22;6652;48.802;9.190;2023-03-07T00:56:14;3.70;99.90
13174;DHT22;6652;48.802;9.190;2023-03-07T00:58:42;3.70;99.90
13174;DHT22;6652;48.802;9.190;2023-03-07T01:01:10;3.70;99.90
13174;DHT22;6652;48.802;9.190;2023-03-07T01:03:37;3.80;99.90
13174;DHT22;6652;48.802;9.190;2023-03-07T01:06:06;3.80;99.90
13174;DHT22;6652;48.802;9.190;2023-03-07T01:08:33;3.80;99.90
13174;DHT22;6652;48.802;9.190;2023-03-07T01:11:02;3.80;99.90
13174;DHT22;6652;48.802;9.190;2023-03-07T01:13:31;3.80;99.90
13174;DHT22;6652;48.802;9.190;2023-03-07T01:16:06;3.80;99.90
13174;DHT22;6652;48.802;9.190;2023-03-07T01:18:33;3.80;99.90
13174;DHT22;6652;48.802;9.190;2023-03-07T01:21:00;3.80;99.90
13174;DHT22;6652;48.802;9.190;2023-03-07T01:23:27;3.90;99.90
13174;DHT22;6652;48.802;9.190;2023-03-07T01:25:53;3.80;99.90
13174;DHT22;6652;48.802;9.190;2023-03-07T01:28:20;3.80;99.90
13174;DHT22;6652;48.802;9.190;2023-03-07T01:30:57;3.80;99.90
13174;DHT22;6652;48.802;9.190;2023-03-07T01:33:24;3.90;99.90
13174;DHT22;6652;48.802;9.190;2023-03-07T01:35:50;3.90;99.90
13174;DHT22;6652;48.802;9.190;2023-03-07T01:38:17;3.90;99.90
13174;DHT22;6652;48.802;9.190;2023-03-07T01:40:44;3.90;99.90
13174;DHT22;6652;48.802;9.190;2023-03-07T01:43:22;3.90;99.90
13174;DHT22;6652;48.802;9.190;2023-03-07T01:46:40;3.90;99.90
13174;DHT22;6652;48.802;9.190;2023-03-07T01:49:12;3.90;99.90
13174;DHT22;6652;48.802;9.190;2023-03-07T01:51:44;3.90;99.90
13174;DHT22;6652;48.802;9.190;2023-03-07T01:54:15;3.90;99.90
13174;DHT22;6652;48.802;9.190;2023-03-07T01:56:44;3.90;99.90
13174;DHT22;6652;48.802;9.190;2023-03-07T01:59:13;4.00;99.90
13174;DHT22;6652;48.802;9.190;2023-03-07T02:01:44;3.90;99.90
13174;DHT22;6652;48.802;9.190;2023-03-07T02:04:14;4.00;99.90
13174;DHT22;6652;48.802;9.190;2023-03-07T02:06:42;3.80;99.90
13174;DHT22;6652;48.802;9.190;2023-03-07T02:09:13;3.80;99.90
13174;DHT22;6652;48.802;9.190;2023-03-07T02:11:42;3.80;99.90
13174;DHT22;6652;48.802;9.190;2023-03-07T02:14:09;3.80;99.90
13174;DHT22;6652;48.802;9.190;2023-03-07T02:16:37;3.80;99.90
13174;DHT22;6652;48.802;9.190;2023-03-07T02:19:13;3.80;99.90
13174;DHT22;6652;48.802;9.190;2023-03-07T02:21:46;3.80;99.90
13174;DHT22;6652;48.802;9.190;2023-03-07T02:24:24;3.80;99.90
13174;DHT22;6652;48.802;9.190;2023-03-07T02:26:55;3.80;99.90
13174;DHT22;6652;48.802;9.190;2023-03-07T02:29:23;3.80;99.90
13174;DHT22;6652;48.802;9.190;2023-03-07T02:31:50;3.80;99.90
13174;DHT22;6652;48.802;9.190;2023-03-07T02:34:18;3.80;99.90
13174;DHT22;6652;48.802;9.190;2023-03-07T02:36:45;3.90;99.90
13174;DHT22;6652;48.802;9.190;2023-03-07T02:39:14;3.80;99.90
13174;DHT22;6652;48.802;9.190;2023-03-07T02:41:41;3.90;99.90
13174;DHT22;6652;48.802;9.190;2023-03-07T02:44:10;3.90;99.90
13174;DHT22;6652;48.802;9.190;2023-03-07T02:46:36;3.90;99.90
13174;DHT22;6652;48.802;9.190;2023-03-07T02:49:03;3.90;99.90
13174;DHT22;6652;48.802;9.190;2023-03-07T02:51:30;3.90;99.90
13174;DHT22;6652;48.802;9.190;2023-03-07T02:53:57;3.90;99.90
13174;DHT22;6652;48.802;9.190;2023-03-07T02:56:24;3.90;99.90
13174;DHT22;6652;48.802;9.190;2023-03-07T02:58:51;4.10;99.90
13174;DHT22;6652;48.802;9.190;2023-03-07T03:01:19;3.90;99.90
13174;DHT22;6652;48.802;9.190;2023-03-07T03:03:46;3.90;99.90
13174;DHT22;6652;48.802;9.190;2023-03-07T03:06:13;3.80;99.90
13174;DHT22;6652;48.802;9.190;2023-03-07T03:08:39;3.90;99.90
13174;DHT22;6652;48.802;9.190;2023-03-07T03:11:06;3.80;99.90
13174;DHT22;6652;48.802;9.190;2023-03-07T03:13:33;3.80;99.90
13174;DHT22;6652;48.802;9.190;2023-03-07T03:16:00;3.80;99.90
13174;DHT22;6652;48.802;9.190;2023-03-07T03:18:29;3.80;99.90
13174;DHT22;6652;48.802;9.190;2023-03-07T03:20:56;3.80;99.90
13174;DHT22;6652;48.802;9.190;2023-03-07T03:23:26;3.80;99.90
13174;DHT22;6652;48.802;9.190;2023-03-07T03:25:57;3.90;99.90
13174;DHT22;6652;48.802;9.190;2023-03-07T03:28:24;3.90;99.90
13174;DHT22;6652;48.802;9.190;2023-03-07T03:30:57;3.90;99.90
13174;DHT22;6652;48.802;9.190;2023-03-07T03:33:23;3.90;99.90
13174;DHT22;6652;48.802;9.190;2023-03-07T03:35:52;3.90;99.90
13174;DHT22;6652;48.802;9.190;2023-03-07T03:38:18;3.90;99.90
13174;DHT22;6652;48.802;9.190;2023-03-07T03:40:45;4.00;99.90
13174;DHT22;6652;48.802;9.190;2023-03-07T03:43:12;4.00;99.90
13174;DHT22;6652;48.802;9.190;2023-03-07T03:45:39;4.00;99.90
13174;DHT22;6652;48.802;9.190;2023-03-07T03:48:06;4.00;99.90
13174;DHT22;6652;48.802;9.190;2023-03-07T03:50:33;4.00;99.90
13174;DHT22;6652;48.802;9.190;2023-03-07T03:53:01;4.00;99.90
13174;DHT22;6652;48.802;9.190;2023-03-07T03:55:28;4.00;99.90
13174;DHT22;6652;48.802;9.190;2023-03-07T03:57:55;4.00;99.90
13174;DHT22;6652;48.802;9.190;2023-03-07T04:00:21;4.00;99.90
13174;DHT22;6652;48.802;9.190;2023-03-07T04:02:48;3.90;99.90
13174;DHT22;6652;48.802;9.190;2023-03-07T04:05:15;3.80;99.90
13174;DHT22;6652;48.802;9.190;2023-03-07T04:07:42;3.80;99.90
13174;DHT22;6652;48.802;9.190;2023-03-07T04:10:11;3.70;99.90
13174;DHT22;6652;48.802;9.190;2023-03-07T04:12:38;3.60;99.90
13174;DHT22;6652;48.802;9.190;2023-03-07T04:15:05;3.60;99.90
13174;DHT22;6652;48.802;9.190;2023-03-07T04:17:33;3.60;99.90
13174;DHT22;6652;48.802;9.190;2023-03-07T04:20:00;3.60;99.90
13174;DHT22;6652;48.802;9.190;2023-03-07T04:22:29;3.60;99.90
13174;DHT22;6652;48.802;9.190;2023-03-07T04:24:56;3.60;99.90
13174;DHT22;6652;48.802;9.190;2023-03-07T04:27:24;3.60;99.90
13174;DHT22;6652;48.802;9.190;2023-03-07T04:29:51;3.70;99.90
13174;DHT22;6652;48.802;9.190;2023-03-07T04:32:17;3.70;99.90
13174;DHT22;6652;48.802;9.190;2023-03-07T04:34:44;3.70;99.90
13174;DHT22;6652;48.802;9.190;2023-03-07T04:37:11;3.70;99.90
13174;DHT22;6652;48.802;9.190;2023-03-07T04:39:38;3.80;99.90
13174;DHT22;6652;48.802;9.190;2023-03-07T04:42:05;3.80;99.90
13174;DHT22;6652;48.802;9.190;2023-03-07T04:44:33;3.80;99.90
13174;DHT22;6652;48.802;9.190;2023-03-07T04:47:00;3.80;99.90
13174;DHT22;6652;48.802;9.190;2023-03-07T04:49:27;3.80;99.90
13174;DHT22;6652;48.802;9.190;2023-03-07T04:51:54;3.80;99.90
13174;DHT22;6652;48.802;9.190;2023-03-07T04:54:21;3.80;99.90
13174;DHT22;6652;48.802;9.190;2023-03-07T04:56:47;3.80;99.90
13174;DHT22;6652;48.802;9.190;2023-03-07T04:59:14;3.90;99.90
13174;DHT22;6652;48.802;9.190;2023-03-07T05:01:42;3.80;99.90
13174;DHT22;6652;48.802;9.190;2023-03-07T05:04:09;3.80;99.90
13174;DHT22;6652;48.802;9.190;2023-03-07T05:06:36;3.90;99.90
13174;DHT22;6652;48.802;9.190;2023-03-07T05:09:02;3.90;99.90
13174;DHT22;6652;48.802;9.190;2023-03-07T05:11:30;3.90;99.90
13174;DHT22;6652;48.802;9.190;2023-03-07T05:13:57;3.80;99.90
13174;DHT22;6652;48.802;9.190;2023-03-07T05:16:24;3.90;99.90
13174;DHT22;6652;48.802;9.190;2023-03-07T05:18:52;4.00;99.90
13174;DHT22;6652;48.802;9.190;2023-03-07T05:21:19;3.80;99.90
13174;DHT22;6652;48.802;9.190;2023-03-07T05:23:45;3.80;99.90
13174;DHT22;6652;48.802;9.190;2023-03-07T05:26:12;3.80;99.90
13174;DHT22;6652;48.802;9.190;2023-03-07T05:28:39;3.80;99.90
13174;DHT22;6652;48.802;9.190;2023-03-07T05:31:06;3.80;99.90
13174;DHT22;6652;48.802;9.190;2023-03-07T05:33:32;3.80;99.90
13174;DHT22;6652;48.802;9.190;2023-03-07T05:36:01;3.80;99.90
13174;DHT22;6652;48.802;9.190;2023-03-07T05:38:28;4.00;99.90
13174;DHT22;6652;48.802;9.190;2023-03-07T05:40:54;3.80;99.90
13174;DHT22;6652;48.802;9.190;2023-03-07T05:43:21;3.80;99.90
13174;DHT22;6652;48.802;9.190;2023-03-07T05:45:48;3.80;99.90
13174;DHT22;6652;48.802;9.190;2023-03-07T05:48:15;3.90;99.90
13174;DHT22;6652;48.802;9.190;2023-03-07T05:50:42;3.90;99.90
13174;DHT22;6652;48.802;9.190;2023-03-07T05:53:10;3.90;99.90
13174;DHT22;6652;48.802;9.190;2023-03-07T05:55:37;3.90;99.90
13174;DHT22;6652;48.802;9.190;2023-03-07T05:58:04;3.90;99.90
13174;DHT22;6652;48.802;9.190;2023-03-07T06:00:31;3.80;99.90
13174;DHT22;6652;48.802;9.190;2023-03-07T06:03:00;3.80;99.90
13174;DHT22;6652;48.802;9.190;2023-03-07T06:05:27;3.90;99.90
13174;DHT22;6652;48.802;9.190;2023-03-07T06:07:54;3.90;99.90
13174;DHT22;6652;48.802;9.190;2023-03-07T06:10:22;3.90;99.90
13174;DHT22;6652;48.802;9.190;2023-03-07T06:12:50;4.00;99.90
13174;DHT22;6652;48.802;9.190;2023-03-07T06:15:17;4.00;99.90
13174;DHT22;6652;48.802;9.190;2023-03-07T06:17:44;4.00;99.90
13174;DHT22;6652;48.802;9.190;2023-03-07T06:20:11;4.00;99.90
13174;DHT22;6652;48.802;9.190;2023-03-07T06:22:38;4.10;99.90
13174;DHT22;6652;48.802;9.190;2023-03-07T06:25:07;4.00;99.90
13174;DHT22;6652;48.802;9.190;2023-03-07T06:27:36;4.00;99.90
13174;DHT22;6652;48.802;9.190;2023-03-07T06:30:05;4.00;99.90
13174;DHT22;6652;48.802;9.190;2023-03-07T06:32:33;4.00;99.90
13174;DHT22;6652;48.802;9.190;2023-03-07T06:35:00;3.90;99.90
13174;DHT22;6652;48.802;9.190;2023-03-07T06:37:26;4.00;99.90
13174;DHT22;6652;48.802;9.190;2023-03-07T06:39:53;4.00;99.90
13174;DHT22;6652;48.802;9.190;2023-03-07T06:42:20;4.10;99.90
13174;DHT22;6652;48.802;9.190;2023-03-07T06:44:49;4.10;99.90
13174;DHT22;6652;48.802;9.190;2023-03-07T06:47:16;4.20;99.90
13174;DHT22;6652;48.802;9.190;2023-03-07T06:49:42;4.10;99.90
13174;DHT22;6652;48.802;9.190;2023-03-07T06:52:09;4.20;99.90
13174;DHT22;6652;48.802;9.190;2023-03-07T06:54:36;4.20;99.90
13174;DHT22;6652;48.802;9.190;2023-03-07T06:57:03;4.30;99.90
13174;DHT22;6652;48.802;9.190;2023-03-07T06:59:30;4.40;99.90
13174;DHT22;6652;48.802;9.190;2023-03-07T07:02:00;4.50;99.70
13174;DHT22;6652;48.802;9.190;2023-03-07T07:04:27;4.60;99.70
13174;DHT22;6652;48.802;9.190;2023-03-07T07:06:54;4.70;99.50
13174;DHT22;6652;48.802;9.190;2023-03-07T07:09:20;4.70;99.30
13174;DHT22;6652;48.802;9.190;2023-03-07T07:11:47;4.80;99.40
13174;DHT22;6652;48.802;9.190;2023-03-07T07:14:14;4.90;99.30
13174;DHT22;6652;48.802;9.190;2023-03-07T07:16:41;4.90;99.10
13174;DHT22;6652;48.802;9.190;2023-03-07T07:19:09;4.90;99.00
13174;DHT22;6652;48.802;9.190;2023-03-07T07:21:36;5.00;99.10
13174;DHT22;6652;48.802;9.190;2023-03-07T07:24:03;5.00;99.00
13174;DHT22;6652;48.802;9.190;2023-03-07T07:26:30;5.10;98.90
13174;DHT22;6652;48.802;9.190;2023-03-07T07:28:57;5.20;99.00
13174;DHT22;6652;48.802;9.190;2023-03-07T07:31:23;5.40;99.00
13174;DHT22;6652;48.802;9.190;2023-03-07T07:33:50;5.40;98.60
13174;DHT22;6652;48.802;9.190;2023-03-07T07:36:18;5.50;98.50
13174;DHT22;6652;48.802;9.190;2023-03-07T07:38:45;5.60;98.40
13174;DHT22;6652;48.802;9.190;2023-03-07T07:41:12;5.70;98.10
13174;DHT22;6652;48.802;9.190;2023-03-07T07:43:39;5.80;98.10
13174;DHT22;6652;48.802;9.190;2023-03-07T07:46:06;5.90;98.10
13174;DHT22;6652;48.802;9.190;2023-03-07T07:48:33;6.00;97.80
13174;DHT22;6652;48.802;9.190;2023-03-07T07:51:00;6.10;97.70
13174;DHT22;6652;48.802;9.190;2023-03-07T07:53:29;6.10;97.40
13174;DHT22;6652;48.802;9.190;2023-03-07T07:55:57;6.30;97.60
13174;DHT22;6652;48.802;9.190;2023-03-07T07:58:24;6.40;97.10
13174;DHT22;6652;48.802;9.190;2023-03-07T08:00:51;6.40;97.10
13174;DHT22;6652;48.802;9.190;2023-03-07T08:03:17;6.40;97.00
13174;DHT22;6652;48.802;9.190;2023-03-07T08:05:45;6.50;96.70
13174;DHT22;6652;48.802;9.190;2023-03-07T08:08:12;6.50;96.60
13174;DHT22;6652;48.802;9.190;2023-03-07T08:10:41;6.60;96.60
13174;DHT22;6652;48.802;9.190;2023-03-07T08:13:10;6.80;96.70
13174;DHT22;6652;48.802;9.190;2023-03-07T08:15:38;7.10;96.40
13174;DHT22;6652;48.802;9.190;2023-03-07T08:18:04;7.20;95.90
13174;DHT22;6652;48.802;9.190;2023-03-07T08:20:31;7.40;96.00
13174;DHT22;6652;48.802;9.190;2023-03-07T08:22:58;7.50;95.80
13174;DHT22;6652;48.802;9.190;2023-03-07T08:25:25;7.50;95.20
13174;DHT22;6652;48.802;9.190;2023-03-07T08:27:54;7.50;95.20
13174;DHT22;6652;48.802;9.190;2023-03-07T08:30:23;7.70;95.30
13174;DHT22;6652;48.802;9.190;2023-03-07T08:32:50;7.90;95.00
13174;DHT22;6652;48.802;9.190;2023-03-07T08:35:17;8.20;94.60
13174;DHT22;6652;48.802;9.190;2023-03-07T08:37:47;8.50;94.40
13174;DHT22;6652;48.802;9.190;2023-03-07T08:40:15;8.70;93.80
13174;DHT22;6652;48.802;9.190;2023-03-07T08:42:42;8.70;93.40
13174;DHT22;6652;48.802;9.190;2023-03-07T08:45:11;8.90;93.40
13174;DHT22;6652;48.802;9.190;2023-03-07T08:47:38;9.20;93.00
13174;DHT22;6652;48.802;9.190;2023-03-07T08:50:05;9.40;92.60
13174;DHT22;6652;48.802;9.190;2023-03-07T08:52:32;9.90;92.30
13174;DHT22;6652;48.802;9.190;2023-03-07T08:54:59;10.40;91.30
13174;DHT22;6652;48.802;9.190;2023-03-07T08:57:26;10.70;90.90
13174;DHT22;6652;48.802;9.190;2023-03-07T08:59:52;10.90;89.70
13174;DHT22;6652;48.802;9.190;2023-03-07T09:02:20;10.90;87.00
13174;DHT22;6652;48.802;9.190;2023-03-07T09:04:47;10.70;87.30
13174;DHT22;6652;48.802;9.190;2023-03-07T09:07:14;10.60;86.70
13174;DHT22;6652;48.802;9.190;2023-03-07T09:09:41;10.90;86.30
13174;DHT22;6652;48.802;9.190;2023-03-07T09:12:08;10.90;85.90
13174;DHT22;6652;48.802;9.190;2023-03-07T09:14:35;11.30;86.20
13174;DHT22;6652;48.802;9.190;2023-03-07T09:17:01;12.10;85.20
13174;DHT22;6652;48.802;9.190;2023-03-07T09:19:30;12.90;83.30
13174;DHT22;6652;48.802;9.190;2023-03-07T09:21:57;13.70;80.30
13174;DHT22;6652;48.802;9.190;2023-03-07T09:24:24;14.20;76.70
13174;DHT22;6652;48.802;9.190;2023-03-07T09:26:51;14.90;76.30
13174;DHT22;6652;48.802;9.190;2023-03-07T09:29:18;15.30;70.80
13174;DHT22;6652;48.802;9.190;2023-03-07T09:31:45;14.50;68.90
13174;DHT22;6652;48.802;9.190;2023-03-07T09:34:11;13.40;69.60
13174;DHT22;6652;48.802;9.190;2023-03-07T09:36:39;12.50;71.00
13174;DHT22;6652;48.802;9.190;2023-03-07T09:39:06;11.70;71.90
13174;DHT22;6652;48.802;9.190;2023-03-07T09:41:54;11.40;73.60
13174;DHT22;6652;48.802;9.190;2023-03-07T09:47:35;10.00;76.00
13174;DHT22;6652;48.802;9.190;2023-03-07T09:50:11;9.70;78.70
13174;DHT22;6652;48.802;9.190;2023-03-07T09:52:40;9.30;78.30
13174;DHT22;6652;48.802;9.190;2023-03-07T09:55:11;9.10;79.40
13174;DHT22;6652;48.802;9.190;2023-03-07T09:57:44;8.80;79.00
13174;DHT22;6652;48.802;9.190;2023-03-07T10:00:18;8.60;80.20
13174;DHT22;6652;48.802;9.190;2023-03-07T10:02:48;8.40;80.90
13174;DHT22;6652;48.802;9.190;2023-03-07T10:05:26;8.20;80.80
13174;DHT22;6652;48.802;9.190;2023-03-07T10:07:55;8.00;81.50
13174;DHT22;6652;48.802;9.190;2023-03-07T10:10:23;7.80;82.10
13174;DHT22;6652;48.802;9.190;2023-03-07T10:13:06;7.60;82.30
13174;DHT22;6652;48.802;9.190;2023-03-07T10:15:44;7.60;83.30
13174;DHT22;6652;48.802;9.190;2023-03-07T10:18:36;7.50;83.40
13174;DHT22;6652;48.802;9.190;2023-03-07T10:21:13;7.40;83.90
13174;DHT22;6652;48.802;9.190;2023-03-07T10:24:03;7.50;84.00
13174;DHT22;6652;48.802;9.190;2023-03-07T10:26:43;7.30;84.50
13174;DHT22;6652;48.802;9.190;2023-03-07T10:29:13;7.20;84.70
13174;DHT22;6652;48.802;9.190;2023-03-07T10:31:44;7.20;85.90
13174;DHT22;6652;48.802;9.190;2023-03-07T10:34:15;7.20;85.00
13174;DHT22;6652;48.802;9.190;2023-03-07T10:36:44;7.10;85.20
13174;DHT22;6652;48.802;9.190;2023-03-07T10:39:21;7.10;85.30
13174;DHT22;6652;48.802;9.190;2023-03-07T10:41:50;7.10;84.90
13174;DHT22;6652;48.802;9.190;2023-03-07T10:44:19;7.00;84.80
13174;DHT22;6652;48.802;9.190;2023-03-07T10:46:52;7.00;85.10
13174;DHT22;6652;48.802;9.190;2023-03-07T10:49:24;7.00;85.30
13174;DHT22;6652;48.802;9.190;2023-03-07T10:51:56;7.00;84.50
13174;DHT22;6652;48.802;9.190;2023-03-07T10:54:29;7.30;85.20
13174;DHT22;6652;48.802;9.190;2023-03-07T10:57:04;7.00;84.50
13174;DHT22;6652;48.802;9.190;2023-03-07T10:59:32;7.00;84.60
13174;DHT22;6652;48.802;9.190;2023-03-07T11:02:00;6.90;84.30
13174;DHT22;6652;48.802;9.190;2023-03-07T11:04:28;7.00;84.20
13174;DHT22;6652;48.802;9.190;2023-03-07T11:06:56;6.90;85.00
13174;DHT22;6652;48.802;9.190;2023-03-07T11:09:28;6.90;84.00
13174;DHT22;6652;48.802;9.190;2023-03-07T11:11:58;6.90;83.90
13174;DHT22;6652;48.802;9.190;2023-03-07T11:14:27;6.80;83.90
13174;DHT22;6652;48.802;9.190;2023-03-07T11:16:56;6.70;84.20
13174;DHT22;6652;48.802;9.190;2023-03-07T11:19:36;6.80;84.60
13174;DHT22;6652;48.802;9.190;2023-03-07T11:22:16;6.80;84.40
13174;DHT22;6652;48.802;9.190;2023-03-07T11:24:51;6.70;84.40
13174;DHT22;6652;48.802;9.190;2023-03-07T11:27:23;6.70;84.60
13174;DHT22;6652;48.802;9.190;2023-03-07T11:30:18;6.70;84.50
13174;DHT22;6652;48.802;9.190;2023-03-07T11:32:50;6.70;84.40
13174;DHT22;6652;48.802;9.190;2023-03-07T11:35:20;6.70;84.90
13174;DHT22;6652;48.802;9.190;2023-03-07T11:37:56;6.70;84.50
13174;DHT22;6652;48.802;9.190;2023-03-07T11:40:31;6.70;83.90
13174;DHT22;6652;48.802;9.190;2023-03-07T11:43:05;6.80;83.90
13174;DHT22;6652;48.802;9.190;2023-03-07T11:45:40;6.70;83.70
13174;DHT22;6652;48.802;9.190;2023-03-07T11:48:23;6.70;84.00
13174;DHT22;6652;48.802;9.190;2023-03-07T11:50:54;6.80;84.10
13174;DHT22;6652;48.802;9.190;2023-03-07T11:53:51;6.70;83.80
13174;DHT22;6652;48.802;9.190;2023-03-07T11:56:28;6.80;84.00
13174;DHT22;6652;48.802;9.190;2023-03-07T12:01:50;6.70;84.20
13174;DHT22;6652;48.802;9.190;2023-03-07T12:07:28;6.70;83.80
13174;DHT22;6652;48.802;9.190;2023-03-07T12:10:01;6.80;84.10
13174;DHT22;6652;48.802;9.190;2023-03-07T12:12:44;6.80;83.40
13174;DHT22;6652;48.802;9.190;2023-03-07T12:15:27;6.80;83.30
13174;DHT22;6652;48.802;9.190;2023-03-07T12:18:14;6.70;82.70
13174;DHT22;6652;48.802;9.190;2023-03-07T12:20:47;6.70;82.70
13174;DHT22;6652;48.802;9.190;2023-03-07T12:23:22;6.70;82.80
13174;DHT22;6652;48.802;9.190;2023-03-07T12:25:52;6.80;83.30
13174;DHT22;6652;48.802;9.190;2023-03-07T12:28:26;8.00;83.80
13174;DHT22;6652;48.802;9.190;2023-03-07T12:31:01;7.10;82.90
13174;DHT22;6652;48.802;9.190;2023-03-07T12:33:43;7.40;83.10
13174;DHT22;6652;48.802;9.190;2023-03-07T12:36:18;7.70;82.00
13174;DHT22;6652;48.802;9.190;2023-03-07T12:38:50;8.00;80.80
13174;DHT22;6652;48.802;9.190;2023-03-07T12:41:25;8.30;80.60
13174;DHT22;6652;48.802;9.190;2023-03-07T12:44:00;8.50;80.00
13174;DHT22;6652;48.802;9.190;2023-03-07T12:46:35;8.50;78.80
13174;DHT22;6652;48.802;9.190;2023-03-07T12:49:12;8.50;77.90
13174;DHT22;6652;48.802;9.190;2023-03-07T12:51:45;8.50;78.00
13174;DHT22;6652;48.802;9.190;2023-03-07T12:54:17;8.50;77.90
13174;DHT22;6652;48.802;9.190;2023-03-07T12:56:51;8.50;77.60
13174;DHT22;6652;48.802;9.190;2023-03-07T12:59:21;8.40;77.70
13174;DHT22;6652;48.802;9.190;2023-03-07T13:01:51;8.30;78.20
13174;DHT22;6652;48.802;9.190;2023-03-07T13:04:22;8.40;78.10
13174;DHT22;6652;48.802;9.190;2023-03-07T13:06:52;8.40;78.40
13174;DHT22;6652;48.802;9.190;2023-03-07T13:09:22;9.10;79.70
13174;DHT22;6652;48.802;9.190;2023-03-07T13:12:32;8.40;78.30
13174;DHT22;6652;48.802;9.190;2023-03-07T13:15:02;8.40;79.00
13174;DHT22;6652;48.802;9.190;2023-03-07T13:17:54;8.50;78.60
13174;DHT22;6652;48.802;9.190;2023-03-07T13:20:43;8.50;78.40
13174;DHT22;6652;48.802;9.190;2023-03-07T13:23:25;8.50;78.50
13174;DHT22;6652;48.802;9.190;2023-03-07T13:26:11;8.50;78.10
13174;DHT22;6652;48.802;9.190;2023-03-07T13:28:48;8.50;78.40
13174;DHT22;6652;48.802;9.190;2023-03-07T13:34:44;8.40;78.30
13174;DHT22;6652;48.802;9.190;2023-03-07T13:37:49;8.30;78.10
13174;DHT22;6652;48.802;9.190;2023-03-07T13:40:37;8.20;78.40
13174;DHT22;6652;48.802;9.190;2023-03-07T13:46:30;8.20;79.20
13174;DHT22;6652;48.802;9.190;2023-03-07T13:49:10;8.10;78.20
13174;DHT22;6652;48.802;9.190;2023-03-07T13:51:38;8.10;78.00
13174;DHT22;6652;48.802;9.190;2023-03-07T13:54:09;8.30;78.40
13174;DHT22;6652;48.802;9.190;2023-03-07T13:56:40;7.90;78.80
13174;DHT22;6652;48.802;9.190;2023-03-07T13:59:17;7.90;79.10
13174;DHT22;6652;48.802;9.190;2023-03-07T14:01:48;7.80;79.20
13174;DHT22;6652;48.802;9.190;2023-03-07T14:04:20;7.80;79.50
13174;DHT22;6652;48.802;9.190;2023-03-07T14:06:52;8.00;80.10
13174;DHT22;6652;48.802;9.190;2023-03-07T14:09:22;8.80;81.30
13174;DHT22;6652;48.802;9.190;2023-03-07T14:11:54;8.10;80.20
13174;DHT22;6652;48.802;9.190;2023-03-07T14:14:39;8.10;79.90
13174;DHT22;6652;48.802;9.190;2023-03-07T14:17:23;8.10;80.30
13174;DHT22;6652;48.802;9.190;2023-03-07T14:19:58;8.30;80.10
13174;DHT22;6652;48.802;9.190;2023-03-07T14:23:03;8.60;80.20
13174;DHT22;6652;48.802;9.190;2023-03-07T14:25:33;8.70;78.30
13174;DHT22;6652;48.802;9.190;2023-03-07T14:28:01;8.90;78.70
13174;DHT22;6652;48.802;9.190;2023-03-07T14:30:31;9.00;78.40
13174;DHT22;6652;48.802;9.190;2023-03-07T14:32:59;9.20;77.50
13174;DHT22;6652;48.802;9.190;2023-03-07T14:35:34;9.20;76.30
13174;DHT22;6652;48.802;9.190;2023-03-07T14:38:05;9.20;76.30
13174;DHT22;6652;48.802;9.190;2023-03-07T14:40:39;9.40;76.70
13174;DHT22;6652;48.802;9.190;2023-03-07T14:43:24;9.40;76.50
13174;DHT22;6652;48.802;9.190;2023-03-07T14:46:02;9.60;76.50
13174;DHT22;6652;48.802;9.190;2023-03-07T14:48:54;9.50;75.30
13174;DHT22;6652;48.802;9.190;2023-03-07T14:51:26;9.40;75.60
13174;DHT22;6652;48.802;9.190;2023-03-07T14:53:56;9.40;75.50
13174;DHT22;6652;48.802;9.190;2023-03-07T14:56:26;9.60;75.70
13174;DHT22;6652;48.802;9.190;2023-03-07T14:58:55;9.30;75.80
13174;DHT22;6652;48.802;9.190;2023-03-07T15:01:28;9.30;76.30
13174;DHT22;6652;48.802;9.190;2023-03-07T15:03:56;9.30;76.10
13174;DHT22;6652;48.802;9.190;2023-03-07T15:06:24;9.30;76.10
13174;DHT22;6652;48.802;9.190;2023-03-07T15:08:55;9.20;75.80
13174;DHT22;6652;48.802;9.190;2023-03-07T15:11:28;9.30;76.00
13174;DHT22;6652;48.802;9.190;2023-03-07T15:13:59;9.30;75.90
13174;DHT22;6652;48.802;9.190;2023-03-07T15:16:30;9.10;75.50
13174;DHT22;6652;48.802;9.190;2023-03-07T15:19:01;9.00;75.60
13174;DHT22;6652;48.802;9.190;2023-03-07T15:21:34;8.90;75.90
13174;DHT22;6652;48.802;9.190;2023-03-07T15:24:04;8.80;76.20
13174;DHT22;6652;48.802;9.190;2023-03-07T15:26:31;8.80;76.00
13174;DHT22;6652;48.802;9.190;2023-03-07T15:28:59;9.10;76.70
13174;DHT22;6652;48.802;9.190;2023-03-07T15:31:31;8.80;76.50
13174;DHT22;6652;48.802;9.190;2023-03-07T15:34:21;8.80;76.20
13174;DHT22;6652;48.802;9.190;2023-03-07T15:36:48;8.70;76.30
13174;DHT22;6652;48.802;9.190;2023-03-07T15:39:29;8.60;76.80
13174;DHT22;6652;48.802;9.190;2023-03-07T15:42:00;9.60;78.20
13174;DHT22;6652;48.802;9.190;2023-03-07T15:44:27;8.40;77.50
13174;DHT22;6652;48.802;9.190;2023-03-07T15:46:56;8.70;78.10
13174;DHT22;6652;48.802;9.190;2023-03-07T15:49:27;8.90;78.80
13174;DHT22;6652;48.802;9.190;2023-03-07T15:51:58;8.30;78.50
13174;DHT22;6652;48.802;9.190;2023-03-07T15:54:34;8.40;79.00
13174;DHT22;6652;48.802;9.190;2023-03-07T15:57:05;8.60;79.40
13174;DHT22;6652;48.802;9.190;2023-03-07T15:59:35;8.20;79.10
13174;DHT22;6652;48.802;9.190;2023-03-07T16:02:43;8.60;80.40
13174;DHT22;6652;48.802;9.190;2023-03-07T16:05:40;8.10;79.20
13174;DHT22;6652;48.802;9.190;2023-03-07T16:08:11;8.00;79.20
13174;DHT22;6652;48.802;9.190;2023-03-07T16:10:45;8.00;79.50
13174;DHT22;6652;48.802;9.190;2023-03-07T16:13:15;8.50;80.30
13174;DHT22;6652;48.802;9.190;2023-03-07T16:15:42;7.90;79.90
13174;DHT22;6652;48.802;9.190;2023-03-07T16:18:13;7.80;80.20
13174;DHT22;6652;48.802;9.190;2023-03-07T16:20:43;7.70;80.50
13174;DHT22;6652;48.802;9.190;2023-03-07T16:23:11;9.00;82.20
13174;DHT22;6652;48.802;9.190;2023-03-07T16:25:40;7.60;81.30
13174;DHT22;6652;48.802;9.190;2023-03-07T16:28:09;8.00;82.10
13174;DHT22;6652;48.802;9.190;2023-03-07T16:30:43;7.50;82.10
13174;DHT22;6652;48.802;9.190;2023-03-07T16:33:11;7.40;82.50
13174;DHT22;6652;48.802;9.190;2023-03-07T16:35:39;7.30;82.80
13174;DHT22;6652;48.802;9.190;2023-03-07T16:38:06;7.30;82.80